PWSweather.com
Personal Weather Stations
Station Observations
GHWX1
Golden Heights, Sturgeon County, AB T0A1N5

Golden HeightsSturgeon County, AB T0A1N5

Lat: 53.919, Lon: -113.37

Elevation: 2159

Station Type:

http://www.ghwx.ca

Latest ConditionsUpdated 7:30:02 AM MST Thursday, Nov 14, 2019
Currently Today's Max Today's Min Today's Average
Temperature 27.5°F-2.5°C 34.7°F1.5°C 23.7°F-4.6°C 28.6°F-1.9°C
Dew Point 27.0°F-2.8°C 32.3°F0.2°C 23.2°F-4.9°C 27.9°F-2.3°C
Winds 6.0 mph E9.7 kmh E 8.0 mph -12.9 kmh - - 2.3 mph 3.7 kmh
Wind Gusts -- -- - -
Humidity 98% 99% 91% 97%
Pressure 30.03 in1016.9 mb 30.04 in1017.3 mb 29.98 in1015.2 mb -
Hour Temp Dew Point Humidity Winds Wind Gusts Pressure Precip Precip Rate Daily Precip Total
07:30 AM 27.5°F-2.5°C 27.0°F-2.8°C 98% 6.0 mph E9.7 kmh E -- 30.03 in1016.9 mb 0.00 in0.0 mm 0.00 in0.0 mm 0.00 in0.0 mm
07:29 AM 27.5°F-2.5°C 27.0°F-2.8°C 98% 4.0 mph E6.4 kmh E -- 30.03 in1016.9 mb 0.00 in0.0 mm 0.00 in0.0 mm 0.00 in0.0 mm
07:28 AM 27.5°F-2.5°C 27.0°F-2.8°C 98% 6.0 mph ENE9.7 kmh ENE -- 30.03 in1016.9 mb 0.00 in0.0 mm 0.00 in0.0 mm 0.00 in0.0 mm
07:27 AM 27.7°F-2.4°C 27.4°F-2.6°C 99% 6.0 mph NE9.7 kmh NE -- 30.03 in1016.9 mb 0.00 in0.0 mm 0.00 in0.0 mm 0.00 in0.0 mm
07:26 AM 27.6°F-2.4°C 27.2°F-2.7°C 98% 6.0 mph E9.7 kmh E -- 30.03 in1016.9 mb 0.00 in0.0 mm 0.00 in0.0 mm 0.00 in0.0 mm
07:25 AM 27.6°F-2.4°C 27.2°F-2.7°C 98% 3.0 mph ENE4.8 kmh ENE -- 30.03 in1016.9 mb 0.00 in0.0 mm 0.00 in0.0 mm 0.00 in0.0 mm
07:24 AM 27.6°F-2.4°C 27.2°F-2.7°C 98% 6.0 mph ENE9.7 kmh ENE -- 30.03 in1016.9 mb 0.00 in0.0 mm 0.00 in0.0 mm 0.00 in0.0 mm
07:23 AM 27.6°F-2.4°C 27.2°F-2.7°C 98% 5.0 mph E8.0 kmh E -- 30.03 in1016.9 mb 0.00 in0.0 mm 0.00 in0.0 mm 0.00 in0.0 mm
07:22 AM 27.6°F-2.4°C 27.2°F-2.7°C 98% 4.0 mph E6.4 kmh E -- 30.03 in1016.9 mb 0.00 in0.0 mm 0.00 in0.0 mm 0.00 in0.0 mm
07:21 AM 27.6°F-2.4°C 27.2°F-2.7°C 98% 4.0 mph ENE6.4 kmh ENE -- 30.03 in1016.9 mb 0.00 in0.0 mm 0.00 in0.0 mm 0.00 in0.0 mm
07:20 AM 27.6°F-2.4°C 27.2°F-2.7°C 98% 5.0 mph ENE8.0 kmh ENE -- 30.03 in1016.9 mb 0.00 in0.0 mm 0.00 in0.0 mm 0.00 in0.0 mm
07:19 AM 27.6°F-2.4°C 27.2°F-2.7°C 98% 4.0 mph ENE6.4 kmh ENE -- 30.03 in1016.9 mb 0.00 in0.0 mm 0.00 in0.0 mm 0.00 in0.0 mm
07:18 AM 27.6°F-2.4°C 27.2°F-2.7°C 98% 6.0 mph E9.7 kmh E -- 30.03 in1016.9 mb 0.00 in0.0 mm 0.00 in0.0 mm 0.00 in0.0 mm
07:17 AM 27.6°F-2.4°C 27.2°F-2.7°C 98% 4.0 mph ENE6.4 kmh ENE -- 30.03 in1016.9 mb 0.00 in0.0 mm 0.00 in0.0 mm 0.00 in0.0 mm
07:16 AM 27.6°F-2.4°C 27.2°F-2.7°C 98% 4.0 mph E6.4 kmh E -- 30.03 in1016.9 mb 0.00 in0.0 mm 0.00 in0.0 mm 0.00 in0.0 mm
07:15 AM 27.8°F-2.3°C 27.4°F-2.6°C 98% 5.0 mph E8.0 kmh E -- 30.03 in1016.9 mb 0.00 in0.0 mm 0.00 in0.0 mm 0.00 in0.0 mm
07:14 AM 27.8°F-2.3°C 27.4°F-2.6°C 98% 5.0 mph ENE8.0 kmh ENE -- 30.03 in1016.9 mb 0.00 in0.0 mm 0.00 in0.0 mm 0.00 in0.0 mm
07:13 AM 27.8°F-2.3°C 27.4°F-2.6°C 98% 5.0 mph NE8.0 kmh NE -- 30.03 in1016.9 mb 0.00 in0.0 mm 0.00 in0.0 mm 0.00 in0.0 mm
07:12 AM 27.8°F-2.3°C 27.4°F-2.6°C 98% 5.0 mph ENE8.0 kmh ENE -- 30.03 in1016.9 mb 0.00 in0.0 mm 0.00 in0.0 mm 0.00 in0.0 mm
07:11 AM 27.9°F-2.3°C 27.4°F-2.6°C 98% 5.0 mph E8.0 kmh E -- 30.03 in1016.9 mb 0.00 in0.0 mm 0.00 in0.0 mm 0.00 in0.0 mm
07:10 AM 27.9°F-2.3°C 27.4°F-2.6°C 98% 5.0 mph ENE8.0 kmh ENE -- 30.03 in1016.9 mb 0.00 in0.0 mm 0.00 in0.0 mm 0.00 in0.0 mm
07:09 AM 27.9°F-2.3°C 27.4°F-2.6°C 98% 4.0 mph E6.4 kmh E -- 30.03 in1016.9 mb 0.00 in0.0 mm 0.00 in0.0 mm 0.00 in0.0 mm
07:08 AM 27.9°F-2.3°C 27.4°F-2.6°C 98% 7.0 mph E11.3 kmh E -- 30.03 in1016.9 mb 0.00 in0.0 mm 0.00 in0.0 mm 0.00 in0.0 mm
07:07 AM 27.9°F-2.3°C 27.4°F-2.6°C 98% 5.0 mph ENE8.0 kmh ENE -- 30.03 in1016.9 mb 0.00 in0.0 mm 0.00 in0.0 mm 0.00 in0.0 mm
07:06 AM 27.9°F-2.3°C 27.4°F-2.6°C 98% 4.0 mph NE6.4 kmh NE -- 30.03 in1016.9 mb 0.00 in0.0 mm 0.00 in0.0 mm 0.00 in0.0 mm
07:05 AM 27.9°F-2.3°C 27.4°F-2.6°C 98% 6.0 mph NE9.7 kmh NE -- 30.03 in1016.9 mb 0.00 in0.0 mm 0.00 in0.0 mm 0.00 in0.0 mm
07:04 AM 27.9°F-2.3°C 27.4°F-2.6°C 98% 5.0 mph ENE8.0 kmh ENE -- 30.03 in1016.9 mb 0.00 in0.0 mm 0.00 in0.0 mm 0.00 in0.0 mm
07:03 AM 27.9°F-2.3°C 27.4°F-2.6°C 98% 6.0 mph ENE9.7 kmh ENE -- 30.03 in1016.9 mb 0.00 in0.0 mm 0.00 in0.0 mm 0.00 in0.0 mm
07:02 AM 28.2°F-2.1°C 27.7°F-2.4°C 98% 7.0 mph ENE11.3 kmh ENE -- 30.03 in1016.9 mb 0.00 in0.0 mm 0.00 in0.0 mm 0.00 in0.0 mm
07:01 AM 28.2°F-2.1°C 27.7°F-2.4°C 98% 8.0 mph E12.9 kmh E -- 30.03 in1016.9 mb 0.00 in0.0 mm 0.00 in0.0 mm 0.00 in0.0 mm
07:00 AM 28.2°F-2.1°C 27.7°F-2.4°C 98% 5.0 mph E8.0 kmh E -- 30.03 in1016.9 mb 0.00 in0.0 mm 0.00 in0.0 mm 0.00 in0.0 mm
06:59 AM 28.2°F-2.1°C 27.7°F-2.4°C 98% 4.0 mph E6.4 kmh E -- 30.03 in1016.9 mb 0.00 in0.0 mm 0.00 in0.0 mm 0.00 in0.0 mm
06:58 AM 28.2°F-2.1°C 27.7°F-2.4°C 98% 5.0 mph E8.0 kmh E -- 30.03 in1016.9 mb 0.00 in0.0 mm 0.00 in0.0 mm 0.00 in0.0 mm
06:57 AM 28.2°F-2.1°C 28.0°F-2.2°C 99% 3.0 mph ENE4.8 kmh ENE -- 30.03 in1016.9 mb 0.00 in0.0 mm 0.00 in0.0 mm 0.00 in0.0 mm
06:56 AM 28.2°F-2.1°C 27.7°F-2.4°C 98% 6.0 mph NE9.7 kmh NE -- 30.03 in1016.9 mb 0.00 in0.0 mm 0.00 in0.0 mm 0.00 in0.0 mm
06:55 AM 28.2°F-2.1°C 27.7°F-2.4°C 98% 5.0 mph NE8.0 kmh NE -- 30.03 in1016.9 mb 0.00 in0.0 mm 0.00 in0.0 mm 0.00 in0.0 mm
06:54 AM 28.2°F-2.1°C 27.7°F-2.4°C 98% 5.0 mph ENE8.0 kmh ENE -- 30.03 in1016.9 mb 0.00 in0.0 mm 0.00 in0.0 mm 0.00 in0.0 mm
06:53 AM 28.2°F-2.1°C 27.7°F-2.4°C 98% 5.0 mph E8.0 kmh E -- 30.03 in1016.9 mb 0.00 in0.0 mm 0.00 in0.0 mm 0.00 in0.0 mm
06:52 AM 28.2°F-2.1°C 27.7°F-2.4°C 98% 3.0 mph NE4.8 kmh NE -- 30.03 in1016.9 mb 0.00 in0.0 mm 0.00 in0.0 mm 0.00 in0.0 mm
06:51 AM 28.2°F-2.1°C 27.7°F-2.4°C 98% 4.0 mph ENE6.4 kmh ENE -- 30.03 in1016.9 mb 0.00 in0.0 mm 0.00 in0.0 mm 0.00 in0.0 mm
06:50 AM 28.2°F-2.1°C 27.7°F-2.4°C 98% 7.0 mph E11.3 kmh E -- 30.03 in1016.9 mb 0.00 in0.0 mm 0.00 in0.0 mm 0.00 in0.0 mm
06:49 AM 28.3°F-2.1°C 27.7°F-2.4°C 98% 8.0 mph E12.9 kmh E -- 30.03 in1016.9 mb 0.00 in0.0 mm 0.00 in0.0 mm 0.00 in0.0 mm
06:48 AM 28.3°F-2.1°C 27.7°F-2.4°C 98% 4.0 mph ENE6.4 kmh ENE -- 30.03 in1016.9 mb 0.00 in0.0 mm 0.00 in0.0 mm 0.00 in0.0 mm
06:47 AM 28.3°F-2.1°C 27.7°F-2.4°C 98% 5.0 mph E8.0 kmh E -- 30.03 in1016.9 mb 0.00 in0.0 mm 0.00 in0.0 mm 0.00 in0.0 mm
06:46 AM 28.3°F-2.1°C 27.7°F-2.4°C 98% 6.0 mph NE9.7 kmh NE -- 30.03 in1016.9 mb 0.00 in0.0 mm 0.00 in0.0 mm 0.00 in0.0 mm
06:45 AM 28.3°F-2.1°C 27.7°F-2.4°C 98% 6.0 mph ENE9.7 kmh ENE -- 30.03 in1016.9 mb 0.00 in0.0 mm 0.00 in0.0 mm 0.00 in0.0 mm
06:44 AM 28.6°F-1.9°C 28.1°F-2.2°C 98% 4.0 mph NE6.4 kmh NE -- 30.03 in1016.9 mb 0.00 in0.0 mm 0.00 in0.0 mm 0.00 in0.0 mm
06:43 AM 28.6°F-1.9°C 28.1°F-2.2°C 98% 4.0 mph ENE6.4 kmh ENE -- 30.03 in1016.9 mb 0.00 in0.0 mm 0.00 in0.0 mm 0.00 in0.0 mm
06:42 AM 28.6°F-1.9°C 28.1°F-2.2°C 98% 4.0 mph E6.4 kmh E -- 30.03 in1016.9 mb 0.00 in0.0 mm 0.00 in0.0 mm 0.00 in0.0 mm
06:41 AM 28.6°F-1.9°C 28.1°F-2.2°C 98% 4.0 mph ENE6.4 kmh ENE -- 30.03 in1016.9 mb 0.00 in0.0 mm 0.00 in0.0 mm 0.00 in0.0 mm
06:40 AM 28.6°F-1.9°C 28.1°F-2.2°C 98% 4.0 mph E6.4 kmh E -- 30.03 in1016.9 mb 0.00 in0.0 mm 0.00 in0.0 mm 0.00 in0.0 mm
06:39 AM 28.7°F-1.8°C 28.3°F-2.1°C 98% 4.0 mph E6.4 kmh E -- 30.03 in1016.9 mb 0.00 in0.0 mm 0.00 in0.0 mm 0.00 in0.0 mm
06:38 AM 28.7°F-1.8°C 28.3°F-2.1°C 98% 5.0 mph E8.0 kmh E -- 30.03 in1016.9 mb 0.00 in0.0 mm 0.00 in0.0 mm 0.00 in0.0 mm
06:37 AM 28.9°F-1.7°C 28.7°F-1.8°C 99% 4.0 mph ENE6.4 kmh ENE -- 30.03 in1016.9 mb 0.00 in0.0 mm 0.00 in0.0 mm 0.00 in0.0 mm
06:36 AM 28.7°F-1.8°C 28.3°F-2.1°C 98% 4.0 mph E6.4 kmh E -- 30.03 in1016.9 mb 0.00 in0.0 mm 0.00 in0.0 mm 0.00 in0.0 mm
06:35 AM 28.7°F-1.8°C 28.3°F-2.1°C 98% 4.0 mph ENE6.4 kmh ENE -- 30.03 in1016.9 mb 0.00 in0.0 mm 0.00 in0.0 mm 0.00 in0.0 mm
06:33 AM 28.7°F-1.8°C 28.3°F-2.1°C 98% 3.0 mph ENE4.8 kmh ENE -- 30.03 in1016.9 mb 0.00 in0.0 mm 0.00 in0.0 mm 0.00 in0.0 mm
06:32 AM 28.8°F-1.8°C 28.3°F-2.1°C 98% 3.0 mph E4.8 kmh E -- 30.03 in1016.9 mb 0.00 in0.0 mm 0.00 in0.0 mm 0.00 in0.0 mm
06:31 AM 28.8°F-1.8°C 28.3°F-2.1°C 98% 4.0 mph E6.4 kmh E -- 30.03 in1016.9 mb 0.00 in0.0 mm 0.00 in0.0 mm 0.00 in0.0 mm
06:30 AM 28.8°F-1.8°C 28.3°F-2.1°C 98% 3.0 mph NE4.8 kmh NE -- 30.03 in1016.9 mb 0.00 in0.0 mm 0.00 in0.0 mm 0.00 in0.0 mm
06:29 AM 28.8°F-1.8°C 28.3°F-2.1°C 98% 3.0 mph ENE4.8 kmh ENE -- 30.03 in1016.9 mb 0.00 in0.0 mm 0.00 in0.0 mm 0.00 in0.0 mm
06:28 AM 28.8°F-1.8°C 28.3°F-2.1°C 98% 4.0 mph ENE6.4 kmh ENE -- 30.03 in1016.9 mb 0.00 in0.0 mm 0.00 in0.0 mm 0.00 in0.0 mm
06:27 AM 28.8°F-1.8°C 28.3°F-2.1°C 98% 3.0 mph ENE4.8 kmh ENE -- 30.03 in1016.9 mb 0.00 in0.0 mm 0.00 in0.0 mm 0.00 in0.0 mm
06:26 AM 28.8°F-1.8°C 28.3°F-2.1°C 98% 4.0 mph E6.4 kmh E -- 30.03 in1016.9 mb 0.00 in0.0 mm 0.00 in0.0 mm 0.00 in0.0 mm
06:25 AM 28.8°F-1.8°C 28.3°F-2.1°C 98% 3.0 mph E4.8 kmh E -- 30.03 in1016.9 mb 0.00 in0.0 mm 0.00 in0.0 mm 0.00 in0.0 mm
06:24 AM 28.8°F-1.8°C 28.3°F-2.1°C 98% 2.0 mph NE3.2 kmh NE -- 30.03 in1016.9 mb 0.00 in0.0 mm 0.00 in0.0 mm 0.00 in0.0 mm
06:23 AM 28.8°F-1.8°C 28.3°F-2.1°C 98% 4.0 mph ENE6.4 kmh ENE -- 30.03 in1016.9 mb 0.00 in0.0 mm 0.00 in0.0 mm 0.00 in0.0 mm
06:22 AM 28.8°F-1.8°C 28.3°F-2.1°C 98% 3.0 mph ENE4.8 kmh ENE -- 30.03 in1016.9 mb 0.00 in0.0 mm 0.00 in0.0 mm 0.00 in0.0 mm
06:21 AM 28.8°F-1.8°C 28.3°F-2.1°C 98% 5.0 mph ENE8.0 kmh ENE -- 30.03 in1016.9 mb 0.00 in0.0 mm 0.00 in0.0 mm 0.00 in0.0 mm
06:20 AM 28.8°F-1.8°C 28.3°F-2.1°C 98% 4.0 mph ENE6.4 kmh ENE -- 30.03 in1016.9 mb 0.00 in0.0 mm 0.00 in0.0 mm 0.00 in0.0 mm
06:19 AM 28.8°F-1.8°C 28.3°F-2.1°C 98% 5.0 mph ENE8.0 kmh ENE -- 30.03 in1016.9 mb 0.00 in0.0 mm 0.00 in0.0 mm 0.00 in0.0 mm
06:16 AM 28.8°F-1.8°C 28.3°F-2.1°C 98% 4.0 mph ENE6.4 kmh ENE -- 30.03 in1016.9 mb 0.00 in0.0 mm 0.00 in0.0 mm 0.00 in0.0 mm
06:15 AM 29.1°F-1.6°C 28.6°F-1.9°C 98% 4.0 mph ENE6.4 kmh ENE -- 30.03 in1016.9 mb 0.00 in0.0 mm 0.00 in0.0 mm 0.00 in0.0 mm
06:14 AM 29.1°F-1.6°C 28.6°F-1.9°C 98% 5.0 mph E8.0 kmh E -- 30.03 in1016.9 mb 0.00 in0.0 mm 0.00 in0.0 mm 0.00 in0.0 mm
06:13 AM 29.1°F-1.6°C 28.6°F-1.9°C 98% 5.0 mph ENE8.0 kmh ENE -- 30.03 in1016.9 mb 0.00 in0.0 mm 0.00 in0.0 mm 0.00 in0.0 mm
06:12 AM 29.1°F-1.6°C 28.6°F-1.9°C 98% 3.0 mph ENE4.8 kmh ENE -- 30.03 in1016.9 mb 0.00 in0.0 mm 0.00 in0.0 mm 0.00 in0.0 mm
06:11 AM 29.1°F-1.6°C 28.6°F-1.9°C 98% 4.0 mph ENE6.4 kmh ENE -- 30.03 in1016.9 mb 0.00 in0.0 mm 0.00 in0.0 mm 0.00 in0.0 mm
06:10 AM 29.1°F-1.6°C 28.6°F-1.9°C 98% 5.0 mph ENE8.0 kmh ENE -- 30.03 in1016.9 mb 0.00 in0.0 mm 0.00 in0.0 mm 0.00 in0.0 mm
06:09 AM 29.1°F-1.6°C 28.6°F-1.9°C 98% 4.0 mph ENE6.4 kmh ENE -- 30.03 in1016.9 mb 0.00 in0.0 mm 0.00 in0.0 mm 0.00 in0.0 mm
06:08 AM 29.1°F-1.6°C 28.6°F-1.9°C 98% 2.0 mph E3.2 kmh E -- 30.03 in1016.9 mb 0.00 in0.0 mm 0.00 in0.0 mm 0.00 in0.0 mm
06:07 AM 29.1°F-1.6°C 28.6°F-1.9°C 98% 3.0 mph ENE4.8 kmh ENE -- 30.03 in1016.9 mb 0.00 in0.0 mm 0.00 in0.0 mm 0.00 in0.0 mm
06:06 AM 29.1°F-1.6°C 28.6°F-1.9°C 98% 2.0 mph NE3.2 kmh NE -- 30.03 in1016.9 mb 0.00 in0.0 mm 0.00 in0.0 mm 0.00 in0.0 mm
06:05 AM 29.1°F-1.6°C 28.6°F-1.9°C 98% 3.0 mph ENE4.8 kmh ENE -- 30.03 in1016.9 mb 0.00 in0.0 mm 0.00 in0.0 mm 0.00 in0.0 mm
06:04 AM 29.1°F-1.6°C 28.6°F-1.9°C 98% 4.0 mph E6.4 kmh E -- 30.03 in1016.9 mb 0.00 in0.0 mm 0.00 in0.0 mm 0.00 in0.0 mm
06:03 AM 29.1°F-1.6°C 28.6°F-1.9°C 98% 3.0 mph ENE4.8 kmh ENE -- 30.03 in1016.9 mb 0.00 in0.0 mm 0.00 in0.0 mm 0.00 in0.0 mm
06:02 AM 29.1°F-1.6°C 28.6°F-1.9°C 98% 3.0 mph ENE4.8 kmh ENE -- 30.02 in1016.6 mb 0.00 in0.0 mm 0.00 in0.0 mm 0.00 in0.0 mm
06:01 AM 29.1°F-1.6°C 28.6°F-1.9°C 98% 2.0 mph ESE3.2 kmh ESE -- 30.03 in1016.9 mb 0.00 in0.0 mm 0.00 in0.0 mm 0.00 in0.0 mm
06:00 AM 29.1°F-1.6°C 28.6°F-1.9°C 98% 2.0 mph E3.2 kmh E -- 30.03 in1016.9 mb 0.00 in0.0 mm 0.00 in0.0 mm 0.00 in0.0 mm
05:57 AM 29.1°F-1.6°C 28.6°F-1.9°C 98% 3.0 mph ENE4.8 kmh ENE -- 30.03 in1016.9 mb 0.00 in0.0 mm 0.00 in0.0 mm 0.00 in0.0 mm
05:56 AM 29.1°F-1.6°C 28.6°F-1.9°C 98% 4.0 mph ENE6.4 kmh ENE -- 30.03 in1016.9 mb 0.00 in0.0 mm 0.00 in0.0 mm 0.00 in0.0 mm
05:55 AM 29.1°F-1.6°C 28.6°F-1.9°C 98% 3.0 mph NE4.8 kmh NE -- 30.04 in1017.3 mb 0.00 in0.0 mm 0.00 in0.0 mm 0.00 in0.0 mm
05:54 AM 29.1°F-1.6°C 28.6°F-1.9°C 98% 3.0 mph ENE4.8 kmh ENE -- 30.04 in1017.3 mb 0.00 in0.0 mm 0.00 in0.0 mm 0.00 in0.0 mm
05:53 AM 29.1°F-1.6°C 28.6°F-1.9°C 98% 4.0 mph ENE6.4 kmh ENE -- 30.03 in1016.9 mb 0.00 in0.0 mm 0.00 in0.0 mm 0.00 in0.0 mm
05:50 AM 29.1°F-1.6°C 28.6°F-1.9°C 98% 4.0 mph E6.4 kmh E -- 30.03 in1016.9 mb 0.00 in0.0 mm 0.00 in0.0 mm 0.00 in0.0 mm
05:49 AM 29.1°F-1.6°C 28.6°F-1.9°C 98% 3.0 mph ENE4.8 kmh ENE -- 30.03 in1016.9 mb 0.00 in0.0 mm 0.00 in0.0 mm 0.00 in0.0 mm
05:48 AM 29.1°F-1.6°C 28.6°F-1.9°C 98% 4.0 mph E6.4 kmh E -- 30.03 in1016.9 mb 0.00 in0.0 mm 0.00 in0.0 mm 0.00 in0.0 mm
05:47 AM 29.1°F-1.6°C 28.6°F-1.9°C 98% 3.0 mph E4.8 kmh E -- 30.03 in1016.9 mb 0.00 in0.0 mm 0.00 in0.0 mm 0.00 in0.0 mm
05:46 AM 29.1°F-1.6°C 28.6°F-1.9°C 98% 2.0 mph ENE3.2 kmh ENE -- 30.03 in1016.9 mb 0.00 in0.0 mm 0.00 in0.0 mm 0.00 in0.0 mm
05:45 AM 29.1°F-1.6°C 28.6°F-1.9°C 98% 3.0 mph NE4.8 kmh NE -- 30.04 in1017.3 mb 0.00 in0.0 mm 0.00 in0.0 mm 0.00 in0.0 mm
05:44 AM 29.1°F-1.6°C 28.6°F-1.9°C 98% 3.0 mph ENE4.8 kmh ENE -- 30.04 in1017.3 mb 0.00 in0.0 mm 0.00 in0.0 mm 0.00 in0.0 mm
05:43 AM 29.1°F-1.6°C 28.6°F-1.9°C 98% 2.0 mph NE3.2 kmh NE -- 30.03 in1016.9 mb 0.00 in0.0 mm 0.00 in0.0 mm 0.00 in0.0 mm
05:42 AM 29.1°F-1.6°C 28.6°F-1.9°C 98% 3.0 mph NE4.8 kmh NE -- 30.03 in1016.9 mb 0.00 in0.0 mm 0.00 in0.0 mm 0.00 in0.0 mm
05:41 AM 29.1°F-1.6°C 28.6°F-1.9°C 98% 4.0 mph NE6.4 kmh NE -- 30.03 in1016.9 mb 0.00 in0.0 mm 0.00 in0.0 mm 0.00 in0.0 mm
05:39 AM 29.2°F-1.6°C 28.6°F-1.9°C 98% 4.0 mph ENE6.4 kmh ENE -- 30.03 in1016.9 mb 0.00 in0.0 mm 0.00 in0.0 mm 0.00 in0.0 mm
05:37 AM 29.2°F-1.6°C 28.6°F-1.9°C 98% 5.0 mph E8.0 kmh E -- 30.03 in1016.9 mb 0.00 in0.0 mm 0.00 in0.0 mm 0.00 in0.0 mm
05:36 AM 29.2°F-1.6°C 28.6°F-1.9°C 98% 5.0 mph ENE8.0 kmh ENE -- 30.03 in1016.9 mb 0.00 in0.0 mm 0.00 in0.0 mm 0.00 in0.0 mm
05:35 AM 29.2°F-1.6°C 28.6°F-1.9°C 98% 5.0 mph NE8.0 kmh NE -- 30.03 in1016.9 mb 0.00 in0.0 mm 0.00 in0.0 mm 0.00 in0.0 mm
05:34 AM 29.2°F-1.6°C 28.6°F-1.9°C 98% 7.0 mph ENE11.3 kmh ENE -- 30.03 in1016.9 mb 0.00 in0.0 mm 0.00 in0.0 mm 0.00 in0.0 mm
05:33 AM 29.2°F-1.6°C 28.6°F-1.9°C 98% 5.0 mph ENE8.0 kmh ENE -- 30.03 in1016.9 mb 0.00 in0.0 mm 0.00 in0.0 mm 0.00 in0.0 mm
05:32 AM 29.2°F-1.6°C 28.6°F-1.9°C 98% 4.0 mph ESE6.4 kmh ESE -- 30.03 in1016.9 mb 0.00 in0.0 mm 0.00 in0.0 mm 0.00 in0.0 mm
05:29 AM 29.2°F-1.6°C 28.6°F-1.9°C 98% 3.0 mph ENE4.8 kmh ENE -- 30.03 in1016.9 mb 0.00 in0.0 mm 0.00 in0.0 mm 0.00 in0.0 mm
05:27 AM 29.3°F-1.5°C 29.0°F-1.7°C 99% 3.0 mph ENE4.8 kmh ENE -- 30.03 in1016.9 mb 0.00 in0.0 mm 0.00 in0.0 mm 0.00 in0.0 mm
05:26 AM 29.2°F-1.6°C 28.6°F-1.9°C 98% 4.0 mph E6.4 kmh E -- 30.03 in1016.9 mb 0.00 in0.0 mm 0.00 in0.0 mm 0.00 in0.0 mm
05:24 AM 29.5°F-1.4°C 29.0°F-1.7°C 98% 4.0 mph E6.4 kmh E -- 30.03 in1016.9 mb 0.00 in0.0 mm 0.00 in0.0 mm 0.00 in0.0 mm
05:23 AM 29.5°F-1.4°C 29.0°F-1.7°C 98% 3.0 mph ENE4.8 kmh ENE -- 30.03 in1016.9 mb 0.00 in0.0 mm 0.00 in0.0 mm 0.00 in0.0 mm
05:22 AM 29.5°F-1.4°C 29.0°F-1.7°C 98% 3.0 mph NE4.8 kmh NE -- 30.03 in1016.9 mb 0.00 in0.0 mm 0.00 in0.0 mm 0.00 in0.0 mm
05:21 AM 29.5°F-1.4°C 29.0°F-1.7°C 98% 4.0 mph ENE6.4 kmh ENE -- 30.03 in1016.9 mb 0.00 in0.0 mm 0.00 in0.0 mm 0.00 in0.0 mm
05:20 AM 29.5°F-1.4°C 29.0°F-1.7°C 98% 3.0 mph NE4.8 kmh NE -- 30.03 in1016.9 mb 0.00 in0.0 mm 0.00 in0.0 mm 0.00 in0.0 mm
05:18 AM 29.5°F-1.4°C 29.0°F-1.7°C 98% 1.0 mph ENE1.6 kmh ENE -- 30.03 in1016.9 mb 0.00 in0.0 mm 0.00 in0.0 mm 0.00 in0.0 mm
05:17 AM 29.5°F-1.4°C 29.2°F-1.6°C 99% 2.0 mph E3.2 kmh E -- 30.03 in1016.9 mb 0.00 in0.0 mm 0.00 in0.0 mm 0.00 in0.0 mm
05:16 AM 29.5°F-1.4°C 29.0°F-1.7°C 98% 3.0 mph NE4.8 kmh NE -- 30.03 in1016.9 mb 0.00 in0.0 mm 0.00 in0.0 mm 0.00 in0.0 mm
05:15 AM 29.6°F-1.3°C 29.2°F-1.6°C 98% 2.0 mph ENE3.2 kmh ENE -- 30.03 in1016.9 mb 0.00 in0.0 mm 0.00 in0.0 mm 0.00 in0.0 mm
05:14 AM 29.6°F-1.3°C 29.2°F-1.6°C 98% 3.0 mph E4.8 kmh E -- 30.03 in1016.9 mb 0.00 in0.0 mm 0.00 in0.0 mm 0.00 in0.0 mm
05:13 AM 29.6°F-1.3°C 29.2°F-1.6°C 98% 2.0 mph E3.2 kmh E -- 30.03 in1016.9 mb 0.00 in0.0 mm 0.00 in0.0 mm 0.00 in0.0 mm
05:12 AM 29.7°F-1.3°C 29.4°F-1.4°C 99% 3.0 mph E4.8 kmh E -- 30.03 in1016.9 mb 0.00 in0.0 mm 0.00 in0.0 mm 0.00 in0.0 mm
05:11 AM 29.6°F-1.3°C 29.2°F-1.6°C 98% 4.0 mph E6.4 kmh E -- 30.03 in1016.9 mb 0.00 in0.0 mm 0.00 in0.0 mm 0.00 in0.0 mm
05:10 AM 29.6°F-1.3°C 29.2°F-1.6°C 98% 4.0 mph NE6.4 kmh NE -- 30.03 in1016.9 mb 0.00 in0.0 mm 0.00 in0.0 mm 0.00 in0.0 mm
05:09 AM 29.6°F-1.3°C 29.2°F-1.6°C 98% 4.0 mph ENE6.4 kmh ENE -- 30.03 in1016.9 mb 0.00 in0.0 mm 0.00 in0.0 mm 0.00 in0.0 mm
05:08 AM 29.6°F-1.3°C 29.2°F-1.6°C 98% 3.0 mph E4.8 kmh E -- 30.03 in1016.9 mb 0.00 in0.0 mm 0.00 in0.0 mm 0.00 in0.0 mm
05:07 AM 29.6°F-1.3°C 29.2°F-1.6°C 98% 3.0 mph NE4.8 kmh NE -- 30.03 in1016.9 mb 0.00 in0.0 mm 0.00 in0.0 mm 0.00 in0.0 mm
05:06 AM 29.6°F-1.3°C 29.2°F-1.6°C 98% 2.0 mph NE3.2 kmh NE -- 30.03 in1016.9 mb 0.00 in0.0 mm 0.00 in0.0 mm 0.00 in0.0 mm
05:05 AM 29.6°F-1.3°C 29.2°F-1.6°C 98% 4.0 mph ENE6.4 kmh ENE -- 30.03 in1016.9 mb 0.00 in0.0 mm 0.00 in0.0 mm 0.00 in0.0 mm
05:03 AM 29.6°F-1.3°C 29.2°F-1.6°C 98% 4.0 mph NE6.4 kmh NE -- 30.03 in1016.9 mb 0.00 in0.0 mm 0.00 in0.0 mm 0.00 in0.0 mm
05:02 AM 29.6°F-1.3°C 29.2°F-1.6°C 98% 2.0 mph ENE3.2 kmh ENE -- 30.03 in1016.9 mb 0.00 in0.0 mm 0.00 in0.0 mm 0.00 in0.0 mm
05:00 AM 29.6°F-1.3°C 29.2°F-1.6°C 98% 2.0 mph ENE3.2 kmh ENE -- 30.02 in1016.6 mb 0.00 in0.0 mm 0.00 in0.0 mm 0.00 in0.0 mm
04:59 AM 29.6°F-1.3°C 29.2°F-1.6°C 98% 3.0 mph NE4.8 kmh NE -- 30.03 in1016.9 mb 0.00 in0.0 mm 0.00 in0.0 mm 0.00 in0.0 mm
04:58 AM 29.6°F-1.3°C 29.2°F-1.6°C 98% 4.0 mph NE6.4 kmh NE -- 30.03 in1016.9 mb 0.00 in0.0 mm 0.00 in0.0 mm 0.00 in0.0 mm
04:57 AM 29.6°F-1.3°C 29.2°F-1.6°C 98% 2.0 mph NNE3.2 kmh NNE -- 30.03 in1016.9 mb 0.00 in0.0 mm 0.00 in0.0 mm 0.00 in0.0 mm
04:56 AM 29.6°F-1.3°C 29.2°F-1.6°C 98% 3.0 mph NNE4.8 kmh NNE -- 30.03 in1016.9 mb 0.00 in0.0 mm 0.00 in0.0 mm 0.00 in0.0 mm
04:55 AM 29.6°F-1.3°C 29.2°F-1.6°C 98% 2.0 mph NE3.2 kmh NE -- 30.03 in1016.9 mb 0.00 in0.0 mm 0.00 in0.0 mm 0.00 in0.0 mm
04:54 AM 29.6°F-1.3°C 29.2°F-1.6°C 98% Calm Calm -- 30.03 in1016.9 mb 0.00 in0.0 mm 0.00 in0.0 mm 0.00 in0.0 mm
04:53 AM 29.6°F-1.3°C 29.2°F-1.6°C 98% 1.0 mph ENE1.6 kmh ENE -- 30.03 in1016.9 mb 0.00 in0.0 mm 0.00 in0.0 mm 0.00 in0.0 mm
04:52 AM 29.6°F-1.3°C 29.2°F-1.6°C 98% 1.0 mph NE1.6 kmh NE -- 30.03 in1016.9 mb 0.00 in0.0 mm 0.00 in0.0 mm 0.00 in0.0 mm
04:51 AM 29.6°F-1.3°C 29.2°F-1.6°C 98% 1.0 mph NNE1.6 kmh NNE -- 30.03 in1016.9 mb 0.00 in0.0 mm 0.00 in0.0 mm 0.00 in0.0 mm
04:49 AM 29.6°F-1.3°C 29.2°F-1.6°C 98% 2.0 mph NE3.2 kmh NE -- 30.03 in1016.9 mb 0.00 in0.0 mm 0.00 in0.0 mm 0.00 in0.0 mm
04:48 AM 29.5°F-1.4°C 29.0°F-1.7°C 98% 2.0 mph ENE3.2 kmh ENE -- 30.03 in1016.9 mb 0.00 in0.0 mm 0.00 in0.0 mm 0.00 in0.0 mm
04:47 AM 29.5°F-1.4°C 29.0°F-1.7°C 98% 2.0 mph NE3.2 kmh NE -- 30.03 in1016.9 mb 0.00 in0.0 mm 0.00 in0.0 mm 0.00 in0.0 mm
04:46 AM 29.5°F-1.4°C 29.0°F-1.7°C 98% 3.0 mph NE4.8 kmh NE -- 30.03 in1016.9 mb 0.00 in0.0 mm 0.00 in0.0 mm 0.00 in0.0 mm
04:45 AM 29.5°F-1.4°C 29.0°F-1.7°C 98% 4.0 mph NE6.4 kmh NE -- 30.03 in1016.9 mb 0.00 in0.0 mm 0.00 in0.0 mm 0.00 in0.0 mm
04:43 AM 29.5°F-1.4°C 29.0°F-1.7°C 98% Calm Calm -- 30.03 in1016.9 mb 0.00 in0.0 mm 0.00 in0.0 mm 0.00 in0.0 mm
04:42 AM 29.5°F-1.4°C 29.0°F-1.7°C 98% 1.0 mph NE1.6 kmh NE -- 30.02 in1016.6 mb 0.00 in0.0 mm 0.00 in0.0 mm 0.00 in0.0 mm
04:41 AM 29.5°F-1.4°C 29.0°F-1.7°C 98% 1.0 mph ENE1.6 kmh ENE -- 30.02 in1016.6 mb 0.00 in0.0 mm 0.00 in0.0 mm 0.00 in0.0 mm
04:40 AM 29.5°F-1.4°C 29.0°F-1.7°C 98% 1.0 mph NE1.6 kmh NE -- 30.03 in1016.9 mb 0.00 in0.0 mm 0.00 in0.0 mm 0.00 in0.0 mm
04:39 AM 29.5°F-1.4°C 29.0°F-1.7°C 98% 2.0 mph NE3.2 kmh NE -- 30.03 in1016.9 mb 0.00 in0.0 mm 0.00 in0.0 mm 0.00 in0.0 mm
04:38 AM 29.5°F-1.4°C 29.0°F-1.7°C 98% Calm Calm -- 30.03 in1016.9 mb 0.00 in0.0 mm 0.00 in0.0 mm 0.00 in0.0 mm
04:37 AM 29.5°F-1.4°C 29.0°F-1.7°C 98% 2.0 mph NE3.2 kmh NE -- 30.03 in1016.9 mb 0.00 in0.0 mm 0.00 in0.0 mm 0.00 in0.0 mm
04:35 AM 29.5°F-1.4°C 29.0°F-1.7°C 98% 1.0 mph NE1.6 kmh NE -- 30.03 in1016.9 mb 0.00 in0.0 mm 0.00 in0.0 mm 0.00 in0.0 mm
04:33 AM 29.5°F-1.4°C 29.0°F-1.7°C 98% Calm Calm -- 30.03 in1016.9 mb 0.00 in0.0 mm 0.00 in0.0 mm 0.00 in0.0 mm
04:32 AM 29.5°F-1.4°C 29.2°F-1.6°C 99% 1.0 mph NE1.6 kmh NE -- 30.03 in1016.9 mb 0.00 in0.0 mm 0.00 in0.0 mm 0.00 in0.0 mm
04:31 AM 29.5°F-1.4°C 29.0°F-1.7°C 98% 1.0 mph NE1.6 kmh NE -- 30.03 in1016.9 mb 0.00 in0.0 mm 0.00 in0.0 mm 0.00 in0.0 mm
04:30 AM 29.5°F-1.4°C 29.0°F-1.7°C 98% 3.0 mph NE4.8 kmh NE -- 30.03 in1016.9 mb 0.00 in0.0 mm 0.00 in0.0 mm 0.00 in0.0 mm
04:29 AM 29.2°F-1.6°C 28.6°F-1.9°C 98% 1.0 mph ENE1.6 kmh ENE -- 30.03 in1016.9 mb 0.00 in0.0 mm 0.00 in0.0 mm 0.00 in0.0 mm
04:28 AM 29.2°F-1.6°C 28.6°F-1.9°C 98% 2.0 mph E3.2 kmh E -- 30.03 in1016.9 mb 0.00 in0.0 mm 0.00 in0.0 mm 0.00 in0.0 mm
04:27 AM 29.2°F-1.6°C 28.6°F-1.9°C 98% 2.0 mph NE3.2 kmh NE -- 30.03 in1016.9 mb 0.00 in0.0 mm 0.00 in0.0 mm 0.00 in0.0 mm
04:26 AM 29.1°F-1.6°C 28.6°F-1.9°C 98% 1.0 mph E1.6 kmh E -- 30.03 in1016.9 mb 0.00 in0.0 mm 0.00 in0.0 mm 0.00 in0.0 mm
04:25 AM 29.1°F-1.6°C 28.6°F-1.9°C 98% 2.0 mph ENE3.2 kmh ENE -- 30.03 in1016.9 mb 0.00 in0.0 mm 0.00 in0.0 mm 0.00 in0.0 mm
04:24 AM 29.1°F-1.6°C 28.6°F-1.9°C 98% Calm Calm -- 30.03 in1016.9 mb 0.00 in0.0 mm 0.00 in0.0 mm 0.00 in0.0 mm
04:23 AM 29.1°F-1.6°C 28.6°F-1.9°C 98% 1.0 mph E1.6 kmh E -- 30.02 in1016.6 mb 0.00 in0.0 mm 0.00 in0.0 mm 0.00 in0.0 mm
04:22 AM 29.1°F-1.6°C 28.6°F-1.9°C 98% 1.0 mph ENE1.6 kmh ENE -- 30.02 in1016.6 mb 0.00 in0.0 mm 0.00 in0.0 mm 0.00 in0.0 mm
04:21 AM 28.8°F-1.8°C 28.3°F-2.1°C 98% 3.0 mph NNE4.8 kmh NNE -- 30.02 in1016.6 mb 0.00 in0.0 mm 0.00 in0.0 mm 0.00 in0.0 mm
04:20 AM 28.7°F-1.8°C 28.3°F-2.1°C 98% 2.0 mph ENE3.2 kmh ENE -- 30.02 in1016.6 mb 0.00 in0.0 mm 0.00 in0.0 mm 0.00 in0.0 mm
04:19 AM 28.6°F-1.9°C 28.1°F-2.2°C 98% 3.0 mph E4.8 kmh E -- 30.02 in1016.6 mb 0.00 in0.0 mm 0.00 in0.0 mm 0.00 in0.0 mm
04:18 AM 28.2°F-2.1°C 27.7°F-2.4°C 98% 1.0 mph NE1.6 kmh NE -- 30.02 in1016.6 mb 0.00 in0.0 mm 0.00 in0.0 mm 0.00 in0.0 mm
04:17 AM 28.2°F-2.1°C 27.7°F-2.4°C 98% Calm Calm -- 30.02 in1016.6 mb 0.00 in0.0 mm 0.00 in0.0 mm 0.00 in0.0 mm
04:16 AM 27.9°F-2.3°C 27.4°F-2.6°C 98% Calm Calm -- 30.02 in1016.6 mb 0.00 in0.0 mm 0.00 in0.0 mm 0.00 in0.0 mm
04:15 AM 27.9°F-2.3°C 27.4°F-2.6°C 98% Calm Calm -- 30.03 in1016.9 mb 0.00 in0.0 mm 0.00 in0.0 mm 0.00 in0.0 mm
04:14 AM 27.8°F-2.3°C 27.4°F-2.6°C 98% Calm Calm -- 30.03 in1016.9 mb 0.00 in0.0 mm 0.00 in0.0 mm 0.00 in0.0 mm
04:13 AM 27.6°F-2.4°C 27.2°F-2.7°C 98% Calm Calm -- 30.02 in1016.6 mb 0.00 in0.0 mm 0.00 in0.0 mm 0.00 in0.0 mm
04:10 AM 27.5°F-2.5°C 27.0°F-2.8°C 98% Calm Calm -- 30.02 in1016.6 mb 0.00 in0.0 mm 0.00 in0.0 mm 0.00 in0.0 mm
04:09 AM 27.5°F-2.5°C 27.0°F-2.8°C 98% Calm Calm -- 30.02 in1016.6 mb 0.00 in0.0 mm 0.00 in0.0 mm 0.00 in0.0 mm
04:06 AM 27.5°F-2.5°C 27.0°F-2.8°C 98% Calm Calm -- 30.02 in1016.6 mb 0.00 in0.0 mm 0.00 in0.0 mm 0.00 in0.0 mm
04:05 AM 27.5°F-2.5°C 27.0°F-2.8°C 98% Calm Calm -- 30.01 in1016.3 mb 0.00 in0.0 mm 0.00 in0.0 mm 0.00 in0.0 mm
04:04 AM 27.5°F-2.5°C 27.0°F-2.8°C 98% Calm Calm -- 30.02 in1016.6 mb 0.00 in0.0 mm 0.00 in0.0 mm 0.00 in0.0 mm
04:03 AM 27.3°F-2.6°C 27.1°F-2.7°C 99% Calm Calm -- 30.02 in1016.6 mb 0.00 in0.0 mm 0.00 in0.0 mm 0.00 in0.0 mm
04:00 AM 27.1°F-2.7°C 26.6°F-3.0°C 98% Calm Calm -- 30.01 in1016.3 mb 0.00 in0.0 mm 0.00 in0.0 mm 0.00 in0.0 mm
03:58 AM 27.1°F-2.7°C 26.6°F-3.0°C 98% Calm Calm -- 30.01 in1016.3 mb 0.00 in0.0 mm 0.00 in0.0 mm 0.00 in0.0 mm
03:55 AM 27.1°F-2.7°C 26.6°F-3.0°C 98% Calm Calm -- 30.02 in1016.6 mb 0.00 in0.0 mm 0.00 in0.0 mm 0.00 in0.0 mm
03:54 AM 27.1°F-2.7°C 26.6°F-3.0°C 98% Calm Calm -- 30.02 in1016.6 mb 0.00 in0.0 mm 0.00 in0.0 mm 0.00 in0.0 mm
03:53 AM 27.0°F-2.8°C 26.5°F-3.1°C 98% Calm Calm -- 30.02 in1016.6 mb 0.00 in0.0 mm 0.00 in0.0 mm 0.00 in0.0 mm
03:52 AM 27.0°F-2.8°C 26.5°F-3.1°C 98% Calm Calm -- 30.02 in1016.6 mb 0.00 in0.0 mm 0.00 in0.0 mm 0.00 in0.0 mm
03:51 AM 26.7°F-2.9°C 26.3°F-3.2°C 98% Calm Calm -- 30.02 in1016.6 mb 0.00 in0.0 mm 0.00 in0.0 mm 0.00 in0.0 mm
03:49 AM 26.7°F-2.9°C 26.3°F-3.2°C 98% 1.0 mph NNE1.6 kmh NNE -- 30.02 in1016.6 mb 0.00 in0.0 mm 0.00 in0.0 mm 0.00 in0.0 mm
03:48 AM 26.6°F-3.0°C 26.1°F-3.3°C 98% 1.0 mph NNW1.6 kmh NNW -- 30.02 in1016.6 mb 0.00 in0.0 mm 0.00 in0.0 mm 0.00 in0.0 mm
03:47 AM 26.6°F-3.0°C 26.1°F-3.3°C 98% Calm Calm -- 30.02 in1016.6 mb 0.00 in0.0 mm 0.00 in0.0 mm 0.00 in0.0 mm
03:39 AM 26.3°F-3.2°C 25.7°F-3.5°C 98% Calm Calm -- 30.02 in1016.6 mb 0.00 in0.0 mm 0.00 in0.0 mm 0.00 in0.0 mm
03:35 AM 26.2°F-3.2°C 25.7°F-3.5°C 98% Calm Calm -- 30.02 in1016.6 mb 0.00 in0.0 mm 0.00 in0.0 mm 0.00 in0.0 mm
03:34 AM 26.2°F-3.2°C 25.7°F-3.5°C 98% Calm Calm -- 30.02 in1016.6 mb 0.00 in0.0 mm 0.00 in0.0 mm 0.00 in0.0 mm
03:31 AM 26.1°F-3.3°C 25.6°F-3.6°C 98% Calm Calm -- 30.02 in1016.6 mb 0.00 in0.0 mm 0.00 in0.0 mm 0.00 in0.0 mm
03:30 AM 26.1°F-3.3°C 25.6°F-3.6°C 98% Calm Calm -- 30.02 in1016.6 mb 0.00 in0.0 mm 0.00 in0.0 mm 0.00 in0.0 mm
03:29 AM 26.1°F-3.3°C 25.6°F-3.6°C 98% Calm Calm -- 30.02 in1016.6 mb 0.00 in0.0 mm 0.00 in0.0 mm 0.00 in0.0 mm
03:27 AM 25.9°F-3.4°C 25.4°F-3.7°C 98% Calm Calm -- 30.02 in1016.6 mb 0.00 in0.0 mm 0.00 in0.0 mm 0.00 in0.0 mm
03:21 AM 25.7°F-3.5°C 25.2°F-3.8°C 98% Calm Calm -- 30.02 in1016.6 mb 0.00 in0.0 mm 0.00 in0.0 mm 0.00 in0.0 mm
03:19 AM 25.4°F-3.7°C 24.8°F-4.0°C 98% Calm Calm -- 30.02 in1016.6 mb 0.00 in0.0 mm 0.00 in0.0 mm 0.00 in0.0 mm
03:17 AM 25.2°F-3.8°C 24.7°F-4.1°C 98% Calm Calm -- 30.02 in1016.6 mb 0.00 in0.0 mm 0.00 in0.0 mm 0.00 in0.0 mm
03:16 AM 25.1°F-3.8°C 24.7°F-4.1°C 98% Calm Calm -- 30.02 in1016.6 mb 0.00 in0.0 mm 0.00 in0.0 mm 0.00 in0.0 mm
03:13 AM 25.0°F-3.9°C 24.5°F-4.2°C 98% Calm Calm -- 30.02 in1016.6 mb 0.00 in0.0 mm 0.00 in0.0 mm 0.00 in0.0 mm
03:12 AM 24.8°F-4.0°C 24.3°F-4.3°C 98% 1.0 mph NW1.6 kmh NW -- 30.02 in1016.6 mb 0.00 in0.0 mm 0.00 in0.0 mm 0.00 in0.0 mm
03:11 AM 24.8°F-4.0°C 24.3°F-4.3°C 98% Calm Calm -- 30.02 in1016.6 mb 0.00 in0.0 mm 0.00 in0.0 mm 0.00 in0.0 mm
03:10 AM 24.8°F-4.0°C 24.3°F-4.3°C 98% Calm Calm -- 30.02 in1016.6 mb 0.00 in0.0 mm 0.00 in0.0 mm 0.00 in0.0 mm
03:03 AM 24.6°F-4.1°C 24.1°F-4.4°C 98% Calm Calm -- 30.02 in1016.6 mb 0.00 in0.0 mm 0.00 in0.0 mm 0.00 in0.0 mm
03:02 AM 24.6°F-4.1°C 24.1°F-4.4°C 98% Calm Calm -- 30.02 in1016.6 mb 0.00 in0.0 mm 0.00 in0.0 mm 0.00 in0.0 mm
03:00 AM 24.6°F-4.1°C 24.1°F-4.4°C 98% Calm Calm -- 30.02 in1016.6 mb 0.00 in0.0 mm 0.00 in0.0 mm 0.00 in0.0 mm
02:58 AM 24.6°F-4.1°C 24.1°F-4.4°C 98% Calm Calm -- 30.01 in1016.3 mb 0.00 in0.0 mm 0.00 in0.0 mm 0.00 in0.0 mm
02:57 AM 24.4°F-4.2°C 23.9°F-4.5°C 98% Calm Calm -- 30.01 in1016.3 mb 0.00 in0.0 mm 0.00 in0.0 mm 0.00 in0.0 mm
02:56 AM 24.2°F-4.3°C 23.8°F-4.6°C 98% Calm Calm -- 30.01 in1016.3 mb 0.00 in0.0 mm 0.00 in0.0 mm 0.00 in0.0 mm
02:51 AM 24.2°F-4.3°C 23.8°F-4.6°C 98% Calm Calm -- 30.01 in1016.3 mb 0.00 in0.0 mm 0.00 in0.0 mm 0.00 in0.0 mm
02:50 AM 24.2°F-4.3°C 23.8°F-4.6°C 98% Calm Calm -- 30.01 in1016.3 mb 0.00 in0.0 mm 0.00 in0.0 mm 0.00 in0.0 mm
02:49 AM 24.1°F-4.4°C 23.6°F-4.7°C 98% Calm Calm -- 30.01 in1016.3 mb 0.00 in0.0 mm 0.00 in0.0 mm 0.00 in0.0 mm
02:41 AM 24.1°F-4.4°C 23.6°F-4.7°C 98% Calm Calm -- 30.01 in1016.3 mb 0.00 in0.0 mm 0.00 in0.0 mm 0.00 in0.0 mm
02:38 AM 23.8°F-4.6°C 23.2°F-4.9°C 98% Calm Calm -- 30.01 in1016.3 mb 0.00 in0.0 mm 0.00 in0.0 mm 0.00 in0.0 mm
02:37 AM 23.8°F-4.6°C 23.2°F-4.9°C 98% 1.0 mph SSE1.6 kmh SSE -- 30.01 in1016.3 mb 0.00 in0.0 mm 0.00 in0.0 mm 0.00 in0.0 mm
02:36 AM 23.7°F-4.6°C 23.2°F-4.9°C 98% Calm Calm -- 30.01 in1016.3 mb 0.00 in0.0 mm 0.00 in0.0 mm 0.00 in0.0 mm
02:30 AM 23.7°F-4.6°C 23.2°F-4.9°C 98% Calm Calm -- 30.01 in1016.3 mb 0.00 in0.0 mm 0.00 in0.0 mm 0.00 in0.0 mm
02:28 AM 23.7°F-4.6°C 23.2°F-4.9°C 98% Calm Calm -- 30.00 in1015.9 mb 0.00 in0.0 mm 0.00 in0.0 mm 0.00 in0.0 mm
02:25 AM 23.7°F-4.6°C 23.2°F-4.9°C 98% Calm Calm -- 30.01 in1016.3 mb 0.00 in0.0 mm 0.00 in0.0 mm 0.00 in0.0 mm
02:22 AM 23.8°F-4.6°C 23.2°F-4.9°C 98% Calm Calm -- 30.01 in1016.3 mb 0.00 in0.0 mm 0.00 in0.0 mm 0.00 in0.0 mm
02:18 AM 24.1°F-4.4°C 23.6°F-4.7°C 98% Calm Calm -- 30.00 in1015.9 mb 0.00 in0.0 mm 0.00 in0.0 mm 0.00 in0.0 mm
02:16 AM 24.1°F-4.4°C 23.6°F-4.7°C 98% Calm Calm -- 30.01 in1016.3 mb 0.00 in0.0 mm 0.00 in0.0 mm 0.00 in0.0 mm
02:15 AM 24.2°F-4.3°C 23.8°F-4.6°C 98% Calm Calm -- 30.00 in1015.9 mb 0.00 in0.0 mm 0.00 in0.0 mm 0.00 in0.0 mm
02:08 AM 24.2°F-4.3°C 23.3°F-4.8°C 96% Calm Calm -- 30.00 in1015.9 mb 0.00 in0.0 mm 0.00 in0.0 mm 0.00 in0.0 mm
02:06 AM 24.4°F-4.2°C 23.4°F-4.8°C 96% Calm Calm -- 30.00 in1015.9 mb 0.00 in0.0 mm 0.00 in0.0 mm 0.00 in0.0 mm
02:05 AM 24.6°F-4.1°C 23.6°F-4.7°C 96% Calm Calm -- 30.00 in1015.9 mb 0.00 in0.0 mm 0.00 in0.0 mm 0.00 in0.0 mm
02:04 AM 24.8°F-4.0°C 23.8°F-4.6°C 96% Calm Calm -- 30.00 in1015.9 mb 0.00 in0.0 mm 0.00 in0.0 mm 0.00 in0.0 mm
01:58 AM 24.8°F-4.0°C 23.8°F-4.6°C 96% Calm Calm -- 30.00 in1015.9 mb 0.00 in0.0 mm 0.00 in0.0 mm 0.00 in0.0 mm
01:56 AM 25.0°F-3.9°C 24.0°F-4.4°C 96% Calm Calm -- 30.00 in1015.9 mb 0.00 in0.0 mm 0.00 in0.0 mm 0.00 in0.0 mm
01:49 AM 25.1°F-3.8°C 24.2°F-4.3°C 96% Calm Calm -- 30.00 in1015.9 mb 0.00 in0.0 mm 0.00 in0.0 mm 0.00 in0.0 mm
01:46 AM 25.2°F-3.8°C 24.2°F-4.3°C 96% Calm Calm -- 30.00 in1015.9 mb 0.00 in0.0 mm 0.00 in0.0 mm 0.00 in0.0 mm
01:44 AM 25.4°F-3.7°C 24.3°F-4.3°C 96% Calm Calm -- 29.99 in1015.6 mb 0.00 in0.0 mm 0.00 in0.0 mm 0.00 in0.0 mm
01:43 AM 25.7°F-3.5°C 24.7°F-4.1°C 96% Calm Calm -- 29.99 in1015.6 mb 0.00 in0.0 mm 0.00 in0.0 mm 0.00 in0.0 mm
01:41 AM 25.9°F-3.4°C 24.9°F-3.9°C 96% Calm Calm -- 29.99 in1015.6 mb 0.00 in0.0 mm 0.00 in0.0 mm 0.00 in0.0 mm
01:39 AM 26.1°F-3.3°C 25.1°F-3.8°C 96% Calm Calm -- 29.99 in1015.6 mb 0.00 in0.0 mm 0.00 in0.0 mm 0.00 in0.0 mm
01:38 AM 26.2°F-3.2°C 25.2°F-3.8°C 96% Calm Calm -- 29.99 in1015.6 mb 0.00 in0.0 mm 0.00 in0.0 mm 0.00 in0.0 mm
01:36 AM 26.2°F-3.2°C 25.2°F-3.8°C 96% Calm Calm -- 30.00 in1015.9 mb 0.00 in0.0 mm 0.00 in0.0 mm 0.00 in0.0 mm
01:34 AM 26.3°F-3.2°C 25.2°F-3.8°C 96% Calm Calm -- 29.99 in1015.6 mb 0.00 in0.0 mm 0.00 in0.0 mm 0.00 in0.0 mm
01:32 AM 26.6°F-3.0°C 25.6°F-3.6°C 96% Calm Calm -- 29.99 in1015.6 mb 0.00 in0.0 mm 0.00 in0.0 mm 0.00 in0.0 mm
01:30 AM 26.7°F-2.9°C 25.8°F-3.4°C 96% Calm Calm -- 30.00 in1015.9 mb 0.00 in0.0 mm 0.00 in0.0 mm 0.00 in0.0 mm
01:28 AM 26.7°F-2.9°C 25.8°F-3.4°C 96% Calm Calm -- 29.99 in1015.6 mb 0.00 in0.0 mm 0.00 in0.0 mm 0.00 in0.0 mm
01:27 AM 26.7°F-2.9°C 25.8°F-3.4°C 96% Calm Calm -- 30.00 in1015.9 mb 0.00 in0.0 mm 0.00 in0.0 mm 0.00 in0.0 mm
01:25 AM 27.0°F-2.8°C 26.0°F-3.3°C 96% Calm Calm -- 29.99 in1015.6 mb 0.00 in0.0 mm 0.00 in0.0 mm 0.00 in0.0 mm
01:22 AM 27.1°F-2.7°C 26.1°F-3.3°C 96% Calm Calm -- 29.99 in1015.6 mb 0.00 in0.0 mm 0.00 in0.0 mm 0.00 in0.0 mm
01:20 AM 27.3°F-2.6°C 26.3°F-3.2°C 96% Calm Calm -- 29.99 in1015.6 mb 0.00 in0.0 mm 0.00 in0.0 mm 0.00 in0.0 mm
01:18 AM 27.5°F-2.5°C 26.5°F-3.1°C 96% Calm Calm -- 29.99 in1015.6 mb 0.00 in0.0 mm 0.00 in0.0 mm 0.00 in0.0 mm
01:11 AM 27.6°F-2.4°C 26.7°F-2.9°C 96% Calm Calm -- 29.99 in1015.6 mb 0.00 in0.0 mm 0.00 in0.0 mm 0.00 in0.0 mm
01:09 AM 27.8°F-2.3°C 26.9°F-2.8°C 96% Calm Calm -- 29.99 in1015.6 mb 0.00 in0.0 mm 0.00 in0.0 mm 0.00 in0.0 mm
01:08 AM 27.9°F-2.3°C 26.9°F-2.8°C 96% Calm Calm -- 29.99 in1015.6 mb 0.00 in0.0 mm 0.00 in0.0 mm 0.00 in0.0 mm
01:05 AM 28.2°F-2.1°C 27.2°F-2.7°C 96% Calm Calm -- 29.99 in1015.6 mb 0.00 in0.0 mm 0.00 in0.0 mm 0.00 in0.0 mm
01:04 AM 28.3°F-2.1°C 27.2°F-2.7°C 96% Calm Calm -- 29.99 in1015.6 mb 0.00 in0.0 mm 0.00 in0.0 mm 0.00 in0.0 mm
01:02 AM 28.3°F-2.1°C 27.2°F-2.7°C 96% Calm Calm -- 29.98 in1015.2 mb 0.00 in0.0 mm 0.00 in0.0 mm 0.00 in0.0 mm
01:00 AM 28.7°F-1.8°C 27.5°F-2.5°C 95% Calm Calm -- 29.98 in1015.2 mb 0.00 in0.0 mm 0.00 in0.0 mm 0.00 in0.0 mm
12:59 AM 28.7°F-1.8°C 27.5°F-2.5°C 95% Calm Calm -- 29.99 in1015.6 mb 0.00 in0.0 mm 0.00 in0.0 mm 0.00 in0.0 mm
12:57 AM 28.8°F-1.8°C 27.5°F-2.5°C 95% Calm Calm -- 29.99 in1015.6 mb 0.00 in0.0 mm 0.00 in0.0 mm 0.00 in0.0 mm
12:56 AM 29.2°F-1.6°C 27.8°F-2.3°C 95% Calm Calm -- 29.99 in1015.6 mb 0.00 in0.0 mm 0.00 in0.0 mm 0.00 in0.0 mm
12:54 AM 29.2°F-1.6°C 27.8°F-2.3°C 95% Calm Calm -- 29.99 in1015.6 mb 0.00 in0.0 mm 0.00 in0.0 mm 0.00 in0.0 mm
12:53 AM 29.6°F-1.3°C 28.4°F-2.0°C 95% Calm Calm -- 29.98 in1015.2 mb 0.00 in0.0 mm 0.00 in0.0 mm 0.00 in0.0 mm
12:52 AM 29.8°F-1.2°C 28.6°F-1.9°C 95% Calm Calm -- 29.98 in1015.2 mb 0.00 in0.0 mm 0.00 in0.0 mm 0.00 in0.0 mm
12:50 AM 29.8°F-1.2°C 28.6°F-1.9°C 95% Calm Calm -- 29.99 in1015.6 mb 0.00 in0.0 mm 0.00 in0.0 mm 0.00 in0.0 mm
12:49 AM 30.0°F-1.1°C 28.7°F-1.8°C 95% Calm Calm -- 29.99 in1015.6 mb 0.00 in0.0 mm 0.00 in0.0 mm 0.00 in0.0 mm
12:48 AM 30.1°F-1.1°C 28.7°F-1.8°C 95% Calm Calm -- 29.99 in1015.6 mb 0.00 in0.0 mm 0.00 in0.0 mm 0.00 in0.0 mm
12:46 AM 30.3°F-0.9°C 29.1°F-1.6°C 95% Calm Calm -- 29.99 in1015.6 mb 0.00 in0.0 mm 0.00 in0.0 mm 0.00 in0.0 mm
12:45 AM 30.5°F-0.8°C 29.3°F-1.5°C 95% Calm Calm -- 29.99 in1015.6 mb 0.00 in0.0 mm 0.00 in0.0 mm 0.00 in0.0 mm
12:44 AM 30.5°F-0.8°C 29.3°F-1.5°C 95% Calm Calm -- 29.98 in1015.2 mb 0.00 in0.0 mm 0.00 in0.0 mm 0.00 in0.0 mm
12:43 AM 30.7°F-0.7°C 29.5°F-1.4°C 95% 1.0 mph WNW1.6 kmh WNW -- 29.99 in1015.6 mb 0.00 in0.0 mm 0.00 in0.0 mm 0.00 in0.0 mm
12:42 AM 30.8°F-0.7°C 29.5°F-1.4°C 95% Calm Calm -- 29.99 in1015.6 mb 0.00 in0.0 mm 0.00 in0.0 mm 0.00 in0.0 mm
12:41 AM 31.1°F-0.5°C 29.8°F-1.2°C 95% Calm Calm -- 29.99 in1015.6 mb 0.00 in0.0 mm 0.00 in0.0 mm 0.00 in0.0 mm
12:40 AM 31.1°F-0.5°C 29.8°F-1.2°C 95% Calm Calm -- 29.98 in1015.2 mb 0.00 in0.0 mm 0.00 in0.0 mm 0.00 in0.0 mm
12:39 AM 31.2°F-0.4°C 30.0°F-1.1°C 95% Calm Calm -- 29.99 in1015.6 mb 0.00 in0.0 mm 0.00 in0.0 mm 0.00 in0.0 mm
12:38 AM 31.2°F-0.4°C 30.0°F-1.1°C 95% Calm Calm -- 29.98 in1015.2 mb 0.00 in0.0 mm 0.00 in0.0 mm 0.00 in0.0 mm
12:37 AM 31.2°F-0.4°C 30.0°F-1.1°C 95% Calm Calm -- 29.99 in1015.6 mb 0.00 in0.0 mm 0.00 in0.0 mm 0.00 in0.0 mm
12:36 AM 31.5°F-0.3°C 29.6°F-1.3°C 93% Calm Calm -- 29.99 in1015.6 mb 0.00 in0.0 mm 0.00 in0.0 mm 0.00 in0.0 mm
12:35 AM 31.6°F-0.2°C 29.8°F-1.2°C 93% 1.0 mph WNW1.6 kmh WNW -- 29.99 in1015.6 mb 0.00 in0.0 mm 0.00 in0.0 mm 0.00 in0.0 mm
12:34 AM 31.6°F-0.2°C 29.8°F-1.2°C 93% Calm Calm -- 29.99 in1015.6 mb 0.00 in0.0 mm 0.00 in0.0 mm 0.00 in0.0 mm
12:33 AM 31.7°F-0.2°C 29.8°F-1.2°C 93% 1.0 mph WNW1.6 kmh WNW -- 29.99 in1015.6 mb 0.00 in0.0 mm 0.00 in0.0 mm 0.00 in0.0 mm
12:32 AM 31.7°F-0.2°C 29.8°F-1.2°C 93% Calm Calm -- 29.99 in1015.6 mb 0.00 in0.0 mm 0.00 in0.0 mm 0.00 in0.0 mm
12:31 AM 31.9°F-0.1°C 30.0°F-1.1°C 93% Calm Calm -- 29.99 in1015.6 mb 0.00 in0.0 mm 0.00 in0.0 mm 0.00 in0.0 mm
12:30 AM 31.9°F-0.1°C 30.0°F-1.1°C 93% 1.0 mph WNW1.6 kmh WNW -- 29.99 in1015.6 mb 0.00 in0.0 mm 0.00 in0.0 mm 0.00 in0.0 mm
12:29 AM 32.2°F0.1°C 30.4°F-0.9°C 93% 1.0 mph NW1.6 kmh NW -- 29.99 in1015.6 mb 0.00 in0.0 mm 0.00 in0.0 mm 0.00 in0.0 mm
12:28 AM 32.2°F0.1°C 30.4°F-0.9°C 93% 1.0 mph NW1.6 kmh NW -- 29.98 in1015.2 mb 0.00 in0.0 mm 0.00 in0.0 mm 0.00 in0.0 mm
12:27 AM 32.4°F0.2°C 30.5°F-0.8°C 93% 1.0 mph WNW1.6 kmh WNW -- 29.98 in1015.2 mb 0.00 in0.0 mm 0.00 in0.0 mm 0.00 in0.0 mm
12:26 AM 32.5°F0.3°C 30.7°F-0.7°C 93% 1.0 mph W1.6 kmh W -- 29.98 in1015.2 mb 0.00 in0.0 mm 0.00 in0.0 mm 0.00 in0.0 mm
12:25 AM 32.6°F0.3°C 30.7°F-0.7°C 93% Calm Calm -- 29.98 in1015.2 mb 0.00 in0.0 mm 0.00 in0.0 mm 0.00 in0.0 mm
12:23 AM 32.6°F0.3°C 30.7°F-0.7°C 93% 1.0 mph WNW1.6 kmh WNW -- 29.98 in1015.2 mb 0.00 in0.0 mm 0.00 in0.0 mm 0.00 in0.0 mm
12:22 AM 32.9°F0.5°C 31.1°F-0.5°C 93% 2.0 mph WNW3.2 kmh WNW -- 29.98 in1015.2 mb 0.00 in0.0 mm 0.00 in0.0 mm 0.00 in0.0 mm
12:21 AM 32.9°F0.5°C 31.1°F-0.5°C 93% 3.0 mph NW4.8 kmh NW -- 29.98 in1015.2 mb 0.00 in0.0 mm 0.00 in0.0 mm 0.00 in0.0 mm
12:20 AM 33.0°F0.6°C 31.3°F-0.4°C 93% 3.0 mph NNW4.8 kmh NNW -- 29.98 in1015.2 mb 0.00 in0.0 mm 0.00 in0.0 mm 0.00 in0.0 mm
12:19 AM 33.2°F0.7°C 31.4°F-0.3°C 93% 2.0 mph WNW3.2 kmh WNW -- 29.99 in1015.6 mb 0.00 in0.0 mm 0.00 in0.0 mm 0.00 in0.0 mm
12:18 AM 33.2°F0.7°C 31.4°F-0.3°C 93% 4.0 mph NNE6.4 kmh NNE -- 29.98 in1015.2 mb 0.00 in0.0 mm 0.00 in0.0 mm 0.00 in0.0 mm
12:17 AM 33.4°F0.8°C 31.6°F-0.2°C 93% 3.0 mph 4.8 kmh -- 29.98 in1015.2 mb 0.00 in0.0 mm 0.00 in0.0 mm 0.00 in0.0 mm
12:16 AM 33.4°F0.8°C 31.6°F-0.2°C 93% 4.0 mph 6.4 kmh -- 29.98 in1015.2 mb 0.00 in0.0 mm 0.00 in0.0 mm 0.00 in0.0 mm
12:15 AM 33.5°F0.8°C 31.1°F-0.5°C 91% 2.0 mph WNW3.2 kmh WNW -- 29.98 in1015.2 mb 0.00 in0.0 mm 0.00 in0.0 mm 0.00 in0.0 mm
12:13 AM 33.8°F1.0°C 31.4°F-0.3°C 91% 3.0 mph WNW4.8 kmh WNW -- 29.99 in1015.6 mb 0.00 in0.0 mm 0.00 in0.0 mm 0.00 in0.0 mm
12:12 AM 33.8°F1.0°C 31.4°F-0.3°C 91% 6.0 mph NNW9.7 kmh NNW -- 29.99 in1015.6 mb 0.00 in0.0 mm 0.00 in0.0 mm 0.00 in0.0 mm
12:11 AM 34.0°F1.1°C 31.6°F-0.2°C 91% 4.0 mph NW6.4 kmh NW -- 29.99 in1015.6 mb 0.00 in0.0 mm 0.00 in0.0 mm 0.00 in0.0 mm
12:10 AM 34.2°F1.2°C 31.8°F-0.1°C 91% 6.0 mph NNE9.7 kmh NNE -- 29.99 in1015.6 mb 0.00 in0.0 mm 0.00 in0.0 mm 0.00 in0.0 mm
12:09 AM 34.2°F1.2°C 31.8°F-0.1°C 91% 2.0 mph NW3.2 kmh NW -- 29.99 in1015.6 mb 0.00 in0.0 mm 0.00 in0.0 mm 0.00 in0.0 mm
12:08 AM 34.2°F1.2°C 31.8°F-0.1°C 91% 3.0 mph W4.8 kmh W -- 29.98 in1015.2 mb 0.00 in0.0 mm 0.00 in0.0 mm 0.00 in0.0 mm
12:07 AM 34.2°F1.2°C 31.8°F-0.1°C 91% 7.0 mph WNW11.3 kmh WNW -- 29.98 in1015.2 mb 0.00 in0.0 mm 0.00 in0.0 mm 0.00 in0.0 mm
12:06 AM 34.5°F1.4°C 32.1°F0.1°C 91% 4.0 mph NW6.4 kmh NW -- 29.98 in1015.2 mb 0.00 in0.0 mm 0.00 in0.0 mm 0.00 in0.0 mm
12:05 AM 34.7°F1.5°C 32.3°F0.2°C 91% 3.0 mph W4.8 kmh W -- 29.99 in1015.6 mb 0.00 in0.0 mm 0.00 in0.0 mm 0.00 in0.0 mm
12:04 AM 34.7°F1.5°C 32.3°F0.2°C 91% 5.0 mph NNW8.0 kmh NNW -- 29.99 in1015.6 mb 0.00 in0.0 mm 0.00 in0.0 mm 0.00 in0.0 mm
12:03 AM 34.7°F1.5°C 32.3°F0.2°C 91% 7.0 mph NNW11.3 kmh NNW -- 29.98 in1015.2 mb 0.00 in0.0 mm 0.00 in0.0 mm 0.00 in0.0 mm
12:02 AM 34.7°F1.5°C 32.3°F0.2°C 91% 8.0 mph W12.9 kmh W -- 29.98 in1015.2 mb 0.00 in0.0 mm 0.00 in0.0 mm 0.00 in0.0 mm
12:01 AM 34.7°F1.5°C 32.3°F0.2°C 91% 3.0 mph WSW4.8 kmh WSW -- 29.98 in1015.2 mb 0.00 in0.0 mm 0.00 in0.0 mm 0.00 in0.0 mm
12:00 AM 34.7°F1.5°C 32.3°F0.2°C 91% 5.0 mph 8.0 kmh -- 29.98 in1015.2 mb 0.00 in0.0 mm 0.00 in0.0 mm 0.00 in0.0 mm